sensor_id;sensor_type;location;lat;lon;timestamp;temperature;humidity
20598;DHT22;10457;48.770;11.446;2022-08-14T00:03:07;19.40;63.10
20598;DHT22;10457;48.770;11.446;2022-08-14T00:08:29;19.30;63.90
20598;DHT22;10457;48.770;11.446;2022-08-14T00:13:50;19.20;64.80
20598;DHT22;10457;48.770;11.446;2022-08-14T00:19:13;19.10;65.60
20598;DHT22;10457;48.770;11.446;2022-08-14T00:24:34;19.00;65.90
20598;DHT22;10457;48.770;11.446;2022-08-14T00:29:56;19.00;66.40
20598;DHT22;10457;48.770;11.446;2022-08-14T00:35:19;19.00;66.60
20598;DHT22;10457;48.770;11.446;2022-08-14T00:40:40;18.80;66.90
20598;DHT22;10457;48.770;11.446;2022-08-14T00:46:04;18.80;67.00
20598;DHT22;10457;48.770;11.446;2022-08-14T00:51:28;18.80;67.00
20598;DHT22;10457;48.770;11.446;2022-08-14T00:56:52;18.70;67.50
20598;DHT22;10457;48.770;11.446;2022-08-14T01:02:16;18.60;68.10
20598;DHT22;10457;48.770;11.446;2022-08-14T01:07:44;18.60;68.40
20598;DHT22;10457;48.770;11.446;2022-08-14T01:13:06;18.50;69.00
20598;DHT22;10457;48.770;11.446;2022-08-14T01:18:30;18.50;68.80
20598;DHT22;10457;48.770;11.446;2022-08-14T01:24:10;18.40;69.20
20598;DHT22;10457;48.770;11.446;2022-08-14T01:29:34;18.30;69.70
20598;DHT22;10457;48.770;11.446;2022-08-14T01:34:56;18.30;69.90
20598;DHT22;10457;48.770;11.446;2022-08-14T01:40:21;18.20;69.60
20598;DHT22;10457;48.770;11.446;2022-08-14T01:45:44;18.20;69.70
20598;DHT22;10457;48.770;11.446;2022-08-14T01:51:11;18.20;70.10
20598;DHT22;10457;48.770;11.446;2022-08-14T01:56:36;18.10;70.70
20598;DHT22;10457;48.770;11.446;2022-08-14T02:01:59;18.00;71.50
20598;DHT22;10457;48.770;11.446;2022-08-14T02:07:22;17.90;72.20
20598;DHT22;10457;48.770;11.446;2022-08-14T02:12:46;18.00;71.80
20598;DHT22;10457;48.770;11.446;2022-08-14T02:18:07;18.00;71.90
20598;DHT22;10457;48.770;11.446;2022-08-14T02:23:29;17.80;72.50
20598;DHT22;10457;48.770;11.446;2022-08-14T02:28:55;17.70;74.10
20598;DHT22;10457;48.770;11.446;2022-08-14T02:34:21;17.50;74.70
20598;DHT22;10457;48.770;11.446;2022-08-14T02:39:48;17.40;75.00
20598;DHT22;10457;48.770;11.446;2022-08-14T02:45:12;17.30;75.80
20598;DHT22;10457;48.770;11.446;2022-08-14T02:50:34;17.20;76.30
20598;DHT22;10457;48.770;11.446;2022-08-14T02:55:58;17.20;76.80
20598;DHT22;10457;48.770;11.446;2022-08-14T03:01:23;17.20;77.30
20598;DHT22;10457;48.770;11.446;2022-08-14T03:06:48;17.10;78.30
20598;DHT22;10457;48.770;11.446;2022-08-14T03:12:09;17.10;78.20
20598;DHT22;10457;48.770;11.446;2022-08-14T03:17:33;17.10;78.00
20598;DHT22;10457;48.770;11.446;2022-08-14T03:22:54;17.10;78.20
20598;DHT22;10457;48.770;11.446;2022-08-14T03:28:18;16.90;78.90
20598;DHT22;10457;48.770;11.446;2022-08-14T03:33:48;16.80;80.40
20598;DHT22;10457;48.770;11.446;2022-08-14T03:39:11;16.60;82.60
20598;DHT22;10457;48.770;11.446;2022-08-14T03:44:32;16.50;84.80
20598;DHT22;10457;48.770;11.446;2022-08-14T03:49:56;16.50;86.60
20598;DHT22;10457;48.770;11.446;2022-08-14T03:55:17;16.40;87.70
20598;DHT22;10457;48.770;11.446;2022-08-14T04:00:40;16.20;89.40
20598;DHT22;10457;48.770;11.446;2022-08-14T04:06:03;16.20;90.60
20598;DHT22;10457;48.770;11.446;2022-08-14T04:11:27;16.20;91.30
20598;DHT22;10457;48.770;11.446;2022-08-14T04:16:50;16.30;91.60
20598;DHT22;10457;48.770;11.446;2022-08-14T04:22:13;16.40;91.40
20598;DHT22;10457;48.770;11.446;2022-08-14T04:27:35;16.50;91.20
20598;DHT22;10457;48.770;11.446;2022-08-14T04:32:57;16.50;90.90
20598;DHT22;10457;48.770;11.446;2022-08-14T04:38:20;16.50;91.30
20598;DHT22;10457;48.770;11.446;2022-08-14T04:44:00;16.40;92.20
20598;DHT22;10457;48.770;11.446;2022-08-14T04:49:21;16.40;92.90
20598;DHT22;10457;48.770;11.446;2022-08-14T04:54:44;16.50;92.90
20598;DHT22;10457;48.770;11.446;2022-08-14T05:00:07;16.70;91.50
20598;DHT22;10457;48.770;11.446;2022-08-14T05:05:30;16.80;90.50
20598;DHT22;10457;48.770;11.446;2022-08-14T05:10:55;17.20;88.90
20598;DHT22;10457;48.770;11.446;2022-08-14T05:16:18;17.70;84.30
20598;DHT22;10457;48.770;11.446;2022-08-14T05:21:40;18.00;81.90
20598;DHT22;10457;48.770;11.446;2022-08-14T05:27:04;18.30;81.40
20598;DHT22;10457;48.770;11.446;2022-08-14T05:32:25;18.80;79.40
20598;DHT22;10457;48.770;11.446;2022-08-14T05:37:47;19.50;76.20
20598;DHT22;10457;48.770;11.446;2022-08-14T05:43:10;20.10;74.20
20598;DHT22;10457;48.770;11.446;2022-08-14T05:48:31;20.20;73.50
20598;DHT22;10457;48.770;11.446;2022-08-14T05:53:53;20.50;73.00
20598;DHT22;10457;48.770;11.446;2022-08-14T05:59:16;20.90;72.00
20598;DHT22;10457;48.770;11.446;2022-08-14T06:04:37;21.50;69.50
20598;DHT22;10457;48.770;11.446;2022-08-14T06:10:00;21.40;70.00
20598;DHT22;10457;48.770;11.446;2022-08-14T06:15:23;21.60;69.10
20598;DHT22;10457;48.770;11.446;2022-08-14T06:20:45;21.50;69.70
20598;DHT22;10457;48.770;11.446;2022-08-14T06:26:07;21.30;70.20
20598;DHT22;10457;48.770;11.446;2022-08-14T06:31:31;21.30;71.80
20598;DHT22;10457;48.770;11.446;2022-08-14T06:36:53;21.30;70.90
20598;DHT22;10457;48.770;11.446;2022-08-14T06:42:15;21.30;71.50
20598;DHT22;10457;48.770;11.446;2022-08-14T06:47:39;21.70;70.60
20598;DHT22;10457;48.770;11.446;2022-08-14T06:53:01;22.10;68.60
20598;DHT22;10457;48.770;11.446;2022-08-14T06:58:23;22.10;68.60
20598;DHT22;10457;48.770;11.446;2022-08-14T07:03:46;22.20;68.90
20598;DHT22;10457;48.770;11.446;2022-08-14T07:09:25;22.60;67.20
20598;DHT22;10457;48.770;11.446;2022-08-14T07:14:47;22.90;66.40
20598;DHT22;10457;48.770;11.446;2022-08-14T07:20:10;22.70;67.00
20598;DHT22;10457;48.770;11.446;2022-08-14T07:25:32;22.80;66.10
20598;DHT22;10457;48.770;11.446;2022-08-14T07:30:56;23.10;65.70
20598;DHT22;10457;48.770;11.446;2022-08-14T07:36:19;23.10;65.00
20598;DHT22;10457;48.770;11.446;2022-08-14T07:41:42;23.50;65.10
20598;DHT22;10457;48.770;11.446;2022-08-14T07:47:03;23.60;64.40
20598;DHT22;10457;48.770;11.446;2022-08-14T07:52:27;23.80;62.00
20598;DHT22;10457;48.770;11.446;2022-08-14T07:57:49;24.40;61.60
20598;DHT22;10457;48.770;11.446;2022-08-14T08:03:11;25.10;58.50
20598;DHT22;10457;48.770;11.446;2022-08-14T08:08:35;25.60;58.30
20598;DHT22;10457;48.770;11.446;2022-08-14T08:13:57;26.30;55.70
20598;DHT22;10457;48.770;11.446;2022-08-14T08:19:21;26.30;54.60
20598;DHT22;10457;48.770;11.446;2022-08-14T08:24:45;26.40;56.40
20598;DHT22;10457;48.770;11.446;2022-08-14T08:30:08;26.70;53.10
20598;DHT22;10457;48.770;11.446;2022-08-14T08:35:32;26.60;54.60
20598;DHT22;10457;48.770;11.446;2022-08-14T08:40:58;26.60;54.00
20598;DHT22;10457;48.770;11.446;2022-08-14T08:46:21;27.20;56.10
20598;DHT22;10457;48.770;11.446;2022-08-14T08:51:43;27.30;52.30
20598;DHT22;10457;48.770;11.446;2022-08-14T08:57:11;27.60;54.00
20598;DHT22;10457;48.770;11.446;2022-08-14T09:02:33;28.00;52.40
20598;DHT22;10457;48.770;11.446;2022-08-14T09:08:08;28.10;50.30
20598;DHT22;10457;48.770;11.446;2022-08-14T09:13:35;27.70;51.40
20598;DHT22;10457;48.770;11.446;2022-08-14T09:18:57;28.30;51.60
20598;DHT22;10457;48.770;11.446;2022-08-14T09:24:20;28.80;47.70
20598;DHT22;10457;48.770;11.446;2022-08-14T09:29:43;29.30;48.80
20598;DHT22;10457;48.770;11.446;2022-08-14T09:35:14;29.00;47.70
20598;DHT22;10457;48.770;11.446;2022-08-14T09:40:46;29.30;48.30
20598;DHT22;10457;48.770;11.446;2022-08-14T09:46:13;29.30;46.10
20598;DHT22;10457;48.770;11.446;2022-08-14T09:51:38;29.50;48.00
20598;DHT22;10457;48.770;11.446;2022-08-14T09:57:02;29.70;45.60
20598;DHT22;10457;48.770;11.446;2022-08-14T10:02:28;29.90;46.00
20598;DHT22;10457;48.770;11.446;2022-08-14T10:07:50;30.40;43.10
20598;DHT22;10457;48.770;11.446;2022-08-14T10:13:21;30.60;45.70
20598;DHT22;10457;48.770;11.446;2022-08-14T10:18:48;31.70;44.00
20598;DHT22;10457;48.770;11.446;2022-08-14T10:24:22;31.60;39.10
20598;DHT22;10457;48.770;11.446;2022-08-14T10:29:48;30.60;43.00
20598;DHT22;10457;48.770;11.446;2022-08-14T10:35:13;31.60;40.90
20598;DHT22;10457;48.770;11.446;2022-08-14T10:40:36;32.80;37.00
20598;DHT22;10457;48.770;11.446;2022-08-14T10:45:59;34.10;36.10
20598;DHT22;10457;48.770;11.446;2022-08-14T10:51:25;36.20;33.00
20598;DHT22;10457;48.770;11.446;2022-08-14T10:56:46;36.70;30.80
20598;DHT22;10457;48.770;11.446;2022-08-14T11:02:18;37.10;28.90
20598;DHT22;10457;48.770;11.446;2022-08-14T11:07:54;37.80;29.70
20598;DHT22;10457;48.770;11.446;2022-08-14T11:13:19;37.10;28.50
20598;DHT22;10457;48.770;11.446;2022-08-14T11:18:46;36.40;29.50
20598;DHT22;10457;48.770;11.446;2022-08-14T11:24:12;37.60;28.00
20598;DHT22;10457;48.770;11.446;2022-08-14T11:29:35;38.60;26.50
20598;DHT22;10457;48.770;11.446;2022-08-14T11:34:59;38.10;26.60
20598;DHT22;10457;48.770;11.446;2022-08-14T11:40:25;38.80;25.40
20598;DHT22;10457;48.770;11.446;2022-08-14T11:45:48;38.70;25.30
20598;DHT22;10457;48.770;11.446;2022-08-14T11:51:14;39.70;23.80
20598;DHT22;10457;48.770;11.446;2022-08-14T11:56:43;38.90;24.10
20598;DHT22;10457;48.770;11.446;2022-08-14T12:02:15;37.90;25.60
20598;DHT22;10457;48.770;11.446;2022-08-14T12:07:47;39.20;24.00
20598;DHT22;10457;48.770;11.446;2022-08-14T12:13:15;38.90;23.90
20598;DHT22;10457;48.770;11.446;2022-08-14T12:18:39;39.40;25.60
20598;DHT22;10457;48.770;11.446;2022-08-14T12:24:03;40.20;22.60
20598;DHT22;10457;48.770;11.446;2022-08-14T12:29:28;38.80;22.90
20598;DHT22;10457;48.770;11.446;2022-08-14T12:34:53;39.30;24.30
20598;DHT22;10457;48.770;11.446;2022-08-14T12:40:16;41.30;22.50
20598;DHT22;10457;48.770;11.446;2022-08-14T12:45:45;41.70;21.40
20598;DHT22;10457;48.770;11.446;2022-08-14T12:51:15;41.40;20.80
20598;DHT22;10457;48.770;11.446;2022-08-14T12:56:39;42.00;23.70
20598;DHT22;10457;48.770;11.446;2022-08-14T13:02:02;42.50;21.00
20598;DHT22;10457;48.770;11.446;2022-08-14T13:07:25;42.90;21.70
20598;DHT22;10457;48.770;11.446;2022-08-14T13:12:48;43.60;20.10
20598;DHT22;10457;48.770;11.446;2022-08-14T13:18:13;42.80;20.30
20598;DHT22;10457;48.770;11.446;2022-08-14T13:23:36;40.20;22.10
20598;DHT22;10457;48.770;11.446;2022-08-14T13:29:00;36.20;26.20
20598;DHT22;10457;48.770;11.446;2022-08-14T13:34:26;34.20;29.20
20598;DHT22;10457;48.770;11.446;2022-08-14T13:39:49;32.70;30.60
20598;DHT22;10457;48.770;11.446;2022-08-14T13:45:12;32.30;32.00
20598;DHT22;10457;48.770;11.446;2022-08-14T13:50:36;32.20;32.90
20598;DHT22;10457;48.770;11.446;2022-08-14T13:56:00;31.80;33.30
20598;DHT22;10457;48.770;11.446;2022-08-14T14:01:25;32.00;33.20
20598;DHT22;10457;48.770;11.446;2022-08-14T14:06:50;31.80;32.90
20598;DHT22;10457;48.770;11.446;2022-08-14T14:12:12;31.90;34.30
20598;DHT22;10457;48.770;11.446;2022-08-14T14:17:35;32.00;33.00
20598;DHT22;10457;48.770;11.446;2022-08-14T14:22:59;31.80;34.20
20598;DHT22;10457;48.770;11.446;2022-08-14T14:28:22;31.60;33.30
20598;DHT22;10457;48.770;11.446;2022-08-14T14:33:46;31.60;33.60
20598;DHT22;10457;48.770;11.446;2022-08-14T14:39:13;31.60;32.70
20598;DHT22;10457;48.770;11.446;2022-08-14T14:44:38;31.20;33.20
20598;DHT22;10457;48.770;11.446;2022-08-14T14:50:00;30.90;33.30
20598;DHT22;10457;48.770;11.446;2022-08-14T14:55:25;30.90;34.30
20598;DHT22;10457;48.770;11.446;2022-08-14T15:00:47;31.00;35.40
20598;DHT22;10457;48.770;11.446;2022-08-14T15:06:13;31.20;35.10
20598;DHT22;10457;48.770;11.446;2022-08-14T15:11:36;31.10;35.10
20598;DHT22;10457;48.770;11.446;2022-08-14T15:16:57;31.20;35.30
20598;DHT22;10457;48.770;11.446;2022-08-14T15:22:19;31.20;34.60
20598;DHT22;10457;48.770;11.446;2022-08-14T15:27:42;30.70;34.80
20598;DHT22;10457;48.770;11.446;2022-08-14T15:33:05;30.50;35.20
20598;DHT22;10457;48.770;11.446;2022-08-14T15:38:26;30.50;35.60
20598;DHT22;10457;48.770;11.446;2022-08-14T15:43:51;30.50;35.90
20598;DHT22;10457;48.770;11.446;2022-08-14T15:49:17;30.40;36.50
20598;DHT22;10457;48.770;11.446;2022-08-14T15:54:39;30.20;36.50
20598;DHT22;10457;48.770;11.446;2022-08-14T16:00:05;30.20;36.60
20598;DHT22;10457;48.770;11.446;2022-08-14T16:05:46;30.20;37.10
20598;DHT22;10457;48.770;11.446;2022-08-14T16:11:09;30.20;37.50
20598;DHT22;10457;48.770;11.446;2022-08-14T16:16:33;30.20;37.10
20598;DHT22;10457;48.770;11.446;2022-08-14T16:21:59;30.20;37.30
20598;DHT22;10457;48.770;11.446;2022-08-14T16:27:22;30.10;37.00
20598;DHT22;10457;48.770;11.446;2022-08-14T16:32:45;30.00;37.70
20598;DHT22;10457;48.770;11.446;2022-08-14T16:38:07;29.80;37.20
20598;DHT22;10457;48.770;11.446;2022-08-14T16:43:30;29.70;37.60
20598;DHT22;10457;48.770;11.446;2022-08-14T16:48:53;29.60;37.90
20598;DHT22;10457;48.770;11.446;2022-08-14T16:54:15;29.50;37.80
20598;DHT22;10457;48.770;11.446;2022-08-14T16:59:37;29.30;38.40
20598;DHT22;10457;48.770;11.446;2022-08-14T17:05:15;29.30;38.90
20598;DHT22;10457;48.770;11.446;2022-08-14T17:11:03;29.20;39.00
20598;DHT22;10457;48.770;11.446;2022-08-14T17:16:27;28.90;39.00
20598;DHT22;10457;48.770;11.446;2022-08-14T17:21:52;28.70;39.20
20598;DHT22;10457;48.770;11.446;2022-08-14T17:27:20;28.50;39.70
20598;DHT22;10457;48.770;11.446;2022-08-14T17:32:42;28.30;40.30
20598;DHT22;10457;48.770;11.446;2022-08-14T17:38:09;28.10;41.10
20598;DHT22;10457;48.770;11.446;2022-08-14T17:43:30;28.00;42.10
20598;DHT22;10457;48.770;11.446;2022-08-14T17:49:03;27.90;42.30
20598;DHT22;10457;48.770;11.446;2022-08-14T17:54:27;27.80;43.20
20598;DHT22;10457;48.770;11.446;2022-08-14T17:59:50;27.60;44.00
20598;DHT22;10457;48.770;11.446;2022-08-14T18:05:14;27.50;44.40
20598;DHT22;10457;48.770;11.446;2022-08-14T18:10:40;27.30;45.30
20598;DHT22;10457;48.770;11.446;2022-08-14T18:16:04;27.10;46.50
20598;DHT22;10457;48.770;11.446;2022-08-14T18:21:26;27.00;47.00
20598;DHT22;10457;48.770;11.446;2022-08-14T18:26:51;27.00;47.40
20598;DHT22;10457;48.770;11.446;2022-08-14T18:32:39;26.70;47.50
20598;DHT22;10457;48.770;11.446;2022-08-14T18:38:21;26.50;48.30
20598;DHT22;10457;48.770;11.446;2022-08-14T18:43:46;26.40;48.80
20598;DHT22;10457;48.770;11.446;2022-08-14T18:49:14;26.30;49.40
20598;DHT22;10457;48.770;11.446;2022-08-14T18:54:36;26.20;49.60
20598;DHT22;10457;48.770;11.446;2022-08-14T18:59:59;26.00;50.30
20598;DHT22;10457;48.770;11.446;2022-08-14T19:11:44;25.70;50.90
20598;DHT22;10457;48.770;11.446;2022-08-14T19:17:43;25.60;51.70
20598;DHT22;10457;48.770;11.446;2022-08-14T19:23:14;25.40;52.20
20598;DHT22;10457;48.770;11.446;2022-08-14T19:28:43;25.30;52.60
20598;DHT22;10457;48.770;11.446;2022-08-14T19:34:07;25.20;53.00
20598;DHT22;10457;48.770;11.446;2022-08-14T19:39:48;25.10;53.60
20598;DHT22;10457;48.770;11.446;2022-08-14T19:45:13;24.80;54.30
20598;DHT22;10457;48.770;11.446;2022-08-14T19:50:36;24.70;55.20
20598;DHT22;10457;48.770;11.446;2022-08-14T19:55:59;24.60;55.30
20598;DHT22;10457;48.770;11.446;2022-08-14T20:01:25;24.50;55.30
20598;DHT22;10457;48.770;11.446;2022-08-14T20:06:49;24.40;55.70
20598;DHT22;10457;48.770;11.446;2022-08-14T20:12:18;24.30;56.00
20598;DHT22;10457;48.770;11.446;2022-08-14T20:17:48;24.20;56.00
20598;DHT22;10457;48.770;11.446;2022-08-14T20:23:13;24.10;56.50
20598;DHT22;10457;48.770;11.446;2022-08-14T20:28:39;24.10;57.30
20598;DHT22;10457;48.770;11.446;2022-08-14T20:34:01;24.00;57.10
20598;DHT22;10457;48.770;11.446;2022-08-14T20:39:26;23.90;57.10
20598;DHT22;10457;48.770;11.446;2022-08-14T20:44:48;23.80;57.70
20598;DHT22;10457;48.770;11.446;2022-08-14T20:50:28;23.60;57.70
20598;DHT22;10457;48.770;11.446;2022-08-14T20:55:52;23.50;58.10
20598;DHT22;10457;48.770;11.446;2022-08-14T21:01:33;23.40;58.60
20598;DHT22;10457;48.770;11.446;2022-08-14T21:06:59;23.30;58.80
20598;DHT22;10457;48.770;11.446;2022-08-14T21:12:24;23.20;59.20
20598;DHT22;10457;48.770;11.446;2022-08-14T21:17:47;23.10;60.00
20598;DHT22;10457;48.770;11.446;2022-08-14T21:23:10;23.00;60.50
20598;DHT22;10457;48.770;11.446;2022-08-14T21:28:33;22.90;60.80
20598;DHT22;10457;48.770;11.446;2022-08-14T21:33:57;22.90;61.10
20598;DHT22;10457;48.770;11.446;2022-08-14T21:39:21;22.80;61.50
20598;DHT22;10457;48.770;11.446;2022-08-14T21:44:43;22.70;62.10
20598;DHT22;10457;48.770;11.446;2022-08-14T21:50:08;22.60;62.30
20598;DHT22;10457;48.770;11.446;2022-08-14T21:55:31;22.60;62.20
20598;DHT22;10457;48.770;11.446;2022-08-14T22:00:52;22.50;62.40
20598;DHT22;10457;48.770;11.446;2022-08-14T22:06:17;22.50;62.90
20598;DHT22;10457;48.770;11.446;2022-08-14T22:11:39;22.30;63.40
20598;DHT22;10457;48.770;11.446;2022-08-14T22:17:02;22.30;64.10
20598;DHT22;10457;48.770;11.446;2022-08-14T22:22:25;22.10;65.10
20598;DHT22;10457;48.770;11.446;2022-08-14T22:27:48;22.00;65.30
20598;DHT22;10457;48.770;11.446;2022-08-14T22:33:09;21.80;66.00
20598;DHT22;10457;48.770;11.446;2022-08-14T22:38:32;21.70;66.70
20598;DHT22;10457;48.770;11.446;2022-08-14T22:43:57;21.70;66.80
20598;DHT22;10457;48.770;11.446;2022-08-14T22:49:22;21.60;66.80
20598;DHT22;10457;48.770;11.446;2022-08-14T22:54:46;21.60;66.50
20598;DHT22;10457;48.770;11.446;2022-08-14T23:00:13;21.50;68.20
20598;DHT22;10457;48.770;11.446;2022-08-14T23:05:37;21.50;67.60
20598;DHT22;10457;48.770;11.446;2022-08-14T23:11:02;21.30;69.00
20598;DHT22;10457;48.770;11.446;2022-08-14T23:16:24;21.20;69.10
20598;DHT22;10457;48.770;11.446;2022-08-14T23:21:47;21.10;70.00
20598;DHT22;10457;48.770;11.446;2022-08-14T23:27:12;21.10;70.50
20598;DHT22;10457;48.770;11.446;2022-08-14T23:32:34;21.00;71.00
20598;DHT22;10457;48.770;11.446;2022-08-14T23:37:58;21.10;70.50
20598;DHT22;10457;48.770;11.446;2022-08-14T23:43:23;21.10;70.80
20598;DHT22;10457;48.770;11.446;2022-08-14T23:48:45;21.10;70.60
20598;DHT22;10457;48.770;11.446;2022-08-14T23:54:06;21.20;70.10
20598;DHT22;10457;48.770;11.446;2022-08-14T23:59:29;21.20;69.90
